sensor_id;sensor_type;location;lat;lon;timestamp;pressure;altitude;pressure_sealevel;temperature;humidity
54194;BME280;40102;50.906;6.972;2024-02-26T00:02:15;99141.16;;;8.50;71.83
54194;BME280;40102;50.906;6.972;2024-02-26T00:04:40;99137.75;;;8.48;72.78
54194;BME280;40102;50.906;6.972;2024-02-26T00:07:05;99134.66;;;8.41;73.50
54194;BME280;40102;50.906;6.972;2024-02-26T00:09:31;99133.41;;;8.34;74.58
54194;BME280;40102;50.906;6.972;2024-02-26T00:11:56;99132.00;;;8.29;75.74
54194;BME280;40102;50.906;6.972;2024-02-26T00:14:23;99123.78;;;8.32;76.15
54194;BME280;40102;50.906;6.972;2024-02-26T00:16:48;99123.72;;;8.33;76.41
54194;BME280;40102;50.906;6.972;2024-02-26T00:19:13;99109.31;;;8.36;76.27
54194;BME280;40102;50.906;6.972;2024-02-26T00:21:41;99109.09;;;8.39;76.49
54194;BME280;40102;50.906;6.972;2024-02-26T00:24:09;99106.09;;;8.43;76.44
54194;BME280;40102;50.906;6.972;2024-02-26T00:26:35;99106.63;;;8.49;76.21
54194;BME280;40102;50.906;6.972;2024-02-26T00:29:00;99103.44;;;8.43;76.59
54194;BME280;40102;50.906;6.972;2024-02-26T00:31:25;99094.81;;;8.40;76.76
54194;BME280;40102;50.906;6.972;2024-02-26T00:33:51;99100.03;;;8.29;76.83
54194;BME280;40102;50.906;6.972;2024-02-26T00:36:16;99093.56;;;8.20;77.43
54194;BME280;40102;50.906;6.972;2024-02-26T00:38:41;99097.50;;;8.15;77.91
54194;BME280;40102;50.906;6.972;2024-02-26T00:41:09;99085.91;;;8.16;78.08
54194;BME280;40102;50.906;6.972;2024-02-26T00:43:35;99080.56;;;8.16;77.88
54194;BME280;40102;50.906;6.972;2024-02-26T00:46:00;99094.84;;;8.15;77.93
54194;BME280;40102;50.906;6.972;2024-02-26T00:48:26;99088.25;;;8.07;77.65
54194;BME280;40102;50.906;6.972;2024-02-26T00:50:51;99088.69;;;8.01;77.93
54194;BME280;40102;50.906;6.972;2024-02-26T00:53:17;99086.47;;;7.95;78.15
54194;BME280;40102;50.906;6.972;2024-02-26T00:55:42;99100.63;;;7.96;78.22
54194;BME280;40102;50.906;6.972;2024-02-26T00:58:07;99092.53;;;7.85;79.26
54194;BME280;40102;50.906;6.972;2024-02-26T01:00:33;99099.13;;;7.79;80.06
54194;BME280;40102;50.906;6.972;2024-02-26T01:02:58;99087.22;;;7.72;79.93
54194;BME280;40102;50.906;6.972;2024-02-26T01:05:25;99097.75;;;7.73;79.91
54194;BME280;40102;50.906;6.972;2024-02-26T01:07:50;99088.72;;;7.76;80.86
54194;BME280;40102;50.906;6.972;2024-02-26T01:10:15;99087.66;;;7.78;81.37
54194;BME280;40102;50.906;6.972;2024-02-26T01:12:40;99087.31;;;7.83;81.09
54194;BME280;40102;50.906;6.972;2024-02-26T01:15:06;99087.22;;;7.85;81.40
54194;BME280;40102;50.906;6.972;2024-02-26T01:17:31;99088.91;;;7.86;81.89
54194;BME280;40102;50.906;6.972;2024-02-26T01:19:57;99094.25;;;7.86;81.80
54194;BME280;40102;50.906;6.972;2024-02-26T01:22:22;99097.31;;;7.92;81.80
54194;BME280;40102;50.906;6.972;2024-02-26T01:24:48;99094.66;;;7.92;81.45
54194;BME280;40102;50.906;6.972;2024-02-26T01:27:13;99088.69;;;7.89;81.81
54194;BME280;40102;50.906;6.972;2024-02-26T01:29:40;99092.22;;;7.89;81.75
54194;BME280;40102;50.906;6.972;2024-02-26T01:32:06;99090.09;;;7.94;82.37
54194;BME280;40102;50.906;6.972;2024-02-26T01:34:31;99089.13;;;7.95;82.38
54194;BME280;40102;50.906;6.972;2024-02-26T01:36:57;99092.41;;;7.99;82.17
54194;BME280;40102;50.906;6.972;2024-02-26T01:39:22;99084.53;;;7.97;82.74
54194;BME280;40102;50.906;6.972;2024-02-26T01:41:47;99081.88;;;7.97;83.18
54194;BME280;40102;50.906;6.972;2024-02-26T01:44:13;99083.16;;;7.92;83.95
54194;BME280;40102;50.906;6.972;2024-02-26T01:46:41;99077.41;;;7.85;83.93
54194;BME280;40102;50.906;6.972;2024-02-26T01:49:08;99069.00;;;7.78;84.53
54194;BME280;40102;50.906;6.972;2024-02-26T01:51:35;99079.13;;;7.86;84.81
54194;BME280;40102;50.906;6.972;2024-02-26T01:54:02;99066.66;;;7.87;84.73
54194;BME280;40102;50.906;6.972;2024-02-26T01:56:28;99069.97;;;7.90;85.31
54194;BME280;40102;50.906;6.972;2024-02-26T01:58:57;99068.03;;;7.92;85.20
54194;BME280;40102;50.906;6.972;2024-02-26T02:01:25;99060.16;;;7.91;85.23
54194;BME280;40102;50.906;6.972;2024-02-26T02:03:52;99055.69;;;7.91;85.60
54194;BME280;40102;50.906;6.972;2024-02-26T02:06:18;99062.72;;;7.92;85.16
54194;BME280;40102;50.906;6.972;2024-02-26T02:08:44;99060.91;;;7.93;85.14
54194;BME280;40102;50.906;6.972;2024-02-26T02:11:10;99063.34;;;7.96;85.46
54194;BME280;40102;50.906;6.972;2024-02-26T02:13:37;99055.16;;;7.99;85.01
54194;BME280;40102;50.906;6.972;2024-02-26T02:16:03;99069.31;;;7.99;84.90
54194;BME280;40102;50.906;6.972;2024-02-26T02:18:28;99069.94;;;8.03;85.18
54194;BME280;40102;50.906;6.972;2024-02-26T02:20:53;99076.00;;;8.05;84.86
54194;BME280;40102;50.906;6.972;2024-02-26T02:23:21;99068.25;;;8.02;84.58
54194;BME280;40102;50.906;6.972;2024-02-26T02:25:46;99067.59;;;7.98;85.33
54194;BME280;40102;50.906;6.972;2024-02-26T02:28:11;99067.59;;;7.98;85.47
54194;BME280;40102;50.906;6.972;2024-02-26T02:30:37;99063.97;;;7.99;85.51
54194;BME280;40102;50.906;6.972;2024-02-26T02:33:03;99069.94;;;8.03;85.48
54194;BME280;40102;50.906;6.972;2024-02-26T02:35:28;99048.56;;;7.92;85.13
54194;BME280;40102;50.906;6.972;2024-02-26T02:37:55;99070.19;;;7.87;86.05
54194;BME280;40102;50.906;6.972;2024-02-26T02:40:21;99062.19;;;7.87;86.23
54194;BME280;40102;50.906;6.972;2024-02-26T02:42:46;99070.59;;;7.94;86.57
54194;BME280;40102;50.906;6.972;2024-02-26T02:45:11;99063.88;;;8.01;86.29
54194;BME280;40102;50.906;6.972;2024-02-26T02:47:36;99060.78;;;8.07;85.80
54194;BME280;40102;50.906;6.972;2024-02-26T02:50:03;99064.69;;;8.14;85.32
54194;BME280;40102;50.906;6.972;2024-02-26T02:52:28;99058.63;;;8.12;85.07
54194;BME280;40102;50.906;6.972;2024-02-26T02:54:53;99061.41;;;8.10;85.67
54194;BME280;40102;50.906;6.972;2024-02-26T02:57:19;99054.81;;;8.03;85.48
54194;BME280;40102;50.906;6.972;2024-02-26T02:59:44;99049.06;;;7.97;86.50
54194;BME280;40102;50.906;6.972;2024-02-26T03:02:10;99053.56;;;7.96;87.14
54194;BME280;40102;50.906;6.972;2024-02-26T03:04:35;99053.78;;;7.93;87.18
54194;BME280;40102;50.906;6.972;2024-02-26T03:07:00;99046.00;;;7.90;87.87
54194;BME280;40102;50.906;6.972;2024-02-26T03:09:26;99051.31;;;7.90;88.11
54194;BME280;40102;50.906;6.972;2024-02-26T03:11:51;99051.09;;;7.93;88.49
54194;BME280;40102;50.906;6.972;2024-02-26T03:14:17;99053.13;;;7.90;88.43
54194;BME280;40102;50.906;6.972;2024-02-26T03:16:42;99059.63;;;7.86;89.26
54194;BME280;40102;50.906;6.972;2024-02-26T03:19:07;99068.69;;;7.83;89.26
54194;BME280;40102;50.906;6.972;2024-02-26T03:21:32;99057.28;;;7.81;89.53
54194;BME280;40102;50.906;6.972;2024-02-26T03:23:58;99055.81;;;7.77;89.96
54194;BME280;40102;50.906;6.972;2024-02-26T03:26:23;99071.03;;;7.75;90.44
54194;BME280;40102;50.906;6.972;2024-02-26T03:28:48;99066.16;;;7.69;90.38
54194;BME280;40102;50.906;6.972;2024-02-26T03:31:14;99056.03;;;7.61;91.10
54194;BME280;40102;50.906;6.972;2024-02-26T03:33:40;99057.41;;;7.67;92.03
54194;BME280;40102;50.906;6.972;2024-02-26T03:36:05;99059.53;;;7.74;91.85
54194;BME280;40102;50.906;6.972;2024-02-26T03:38:32;99045.06;;;7.78;91.43
54194;BME280;40102;50.906;6.972;2024-02-26T03:40:57;99047.59;;;7.80;91.41
54194;BME280;40102;50.906;6.972;2024-02-26T03:43:23;99051.34;;;7.77;91.39
54194;BME280;40102;50.906;6.972;2024-02-26T03:45:48;99042.31;;;7.67;91.14
54194;BME280;40102;50.906;6.972;2024-02-26T03:48:13;99048.06;;;7.61;91.92
54194;BME280;40102;50.906;6.972;2024-02-26T03:50:39;99056.13;;;7.60;92.65
54194;BME280;40102;50.906;6.972;2024-02-26T03:53:04;99058.81;;;7.60;93.74
54194;BME280;40102;50.906;6.972;2024-02-26T03:55:29;99050.59;;;7.63;94.00
54194;BME280;40102;50.906;6.972;2024-02-26T03:57:55;99062.41;;;7.71;94.03
54194;BME280;40102;50.906;6.972;2024-02-26T04:00:20;99068.78;;;7.82;93.76
54194;BME280;40102;50.906;6.972;2024-02-26T04:02:48;99078.91;;;7.89;93.07
54194;BME280;40102;50.906;6.972;2024-02-26T04:05:14;99077.72;;;7.93;92.38
54194;BME280;40102;50.906;6.972;2024-02-26T04:07:40;99086.69;;;7.92;92.64
54194;BME280;40102;50.906;6.972;2024-02-26T04:10:09;99083.59;;;7.86;92.00
54194;BME280;40102;50.906;6.972;2024-02-26T04:12:35;99083.16;;;7.79;93.05
54194;BME280;40102;50.906;6.972;2024-02-26T04:15:00;99086.16;;;7.74;93.98
54194;BME280;40102;50.906;6.972;2024-02-26T04:17:26;99097.44;;;7.78;94.73
54194;BME280;40102;50.906;6.972;2024-02-26T04:19:51;99099.13;;;7.79;94.67
54194;BME280;40102;50.906;6.972;2024-02-26T04:22:16;99093.06;;;7.77;94.57
54194;BME280;40102;50.906;6.972;2024-02-26T04:24:42;99093.06;;;7.77;94.94
54194;BME280;40102;50.906;6.972;2024-02-26T04:27:07;99096.16;;;7.84;95.17
54194;BME280;40102;50.906;6.972;2024-02-26T04:29:33;99094.88;;;7.89;95.06
54194;BME280;40102;50.906;6.972;2024-02-26T04:31:58;99103.59;;;7.91;94.48
54194;BME280;40102;50.906;6.972;2024-02-26T04:34:23;99101.78;;;7.92;94.58
54194;BME280;40102;50.906;6.972;2024-02-26T04:36:49;99105.09;;;7.95;94.43
54194;BME280;40102;50.906;6.972;2024-02-26T04:39:14;99101.47;;;7.96;93.79
54194;BME280;40102;50.906;6.972;2024-02-26T04:41:39;99101.59;;;7.95;94.11
54194;BME280;40102;50.906;6.972;2024-02-26T04:44:05;99096.69;;;7.89;94.37
54194;BME280;40102;50.906;6.972;2024-02-26T04:46:30;99104.69;;;7.89;94.66
54194;BME280;40102;50.906;6.972;2024-02-26T04:48:56;99103.19;;;7.85;95.01
54194;BME280;40102;50.906;6.972;2024-02-26T04:51:21;99108.09;;;7.91;95.15
54194;BME280;40102;50.906;6.972;2024-02-26T04:53:47;99107.22;;;7.90;95.14
54194;BME280;40102;50.906;6.972;2024-02-26T04:56:12;99102.88;;;7.89;95.31
54194;BME280;40102;50.906;6.972;2024-02-26T04:58:37;99102.13;;;7.87;94.87
54194;BME280;40102;50.906;6.972;2024-02-26T05:01:03;99109.25;;;7.87;94.51
54194;BME280;40102;50.906;6.972;2024-02-26T05:03:29;99107.03;;;7.80;95.08
54194;BME280;40102;50.906;6.972;2024-02-26T05:05:54;99107.44;;;7.74;95.20
54194;BME280;40102;50.906;6.972;2024-02-26T05:08:20;99110.00;;;7.63;95.49
54194;BME280;40102;50.906;6.972;2024-02-26T05:10:45;99111.28;;;7.58;96.30
54194;BME280;40102;50.906;6.972;2024-02-26T05:13:10;99105.72;;;7.48;97.00
54194;BME280;40102;50.906;6.972;2024-02-26T05:15:36;99103.38;;;7.43;98.01
54194;BME280;40102;50.906;6.972;2024-02-26T05:18:02;99108.06;;;7.40;98.47
54194;BME280;40102;50.906;6.972;2024-02-26T05:20:28;99109.22;;;7.36;98.85
54194;BME280;40102;50.906;6.972;2024-02-26T05:22:53;99105.50;;;7.38;99.81
54194;BME280;40102;50.906;6.972;2024-02-26T05:25:19;99107.00;;;7.42;99.93
54194;BME280;40102;50.906;6.972;2024-02-26T05:27:44;99096.78;;;7.49;99.66
54194;BME280;40102;50.906;6.972;2024-02-26T05:30:11;99102.53;;;7.56;99.41
54194;BME280;40102;50.906;6.972;2024-02-26T05:32:36;99105.09;;;7.57;98.51
54194;BME280;40102;50.906;6.972;2024-02-26T05:35:02;99112.03;;;7.60;98.62
54194;BME280;40102;50.906;6.972;2024-02-26T05:37:31;99113.41;;;7.65;98.69
54194;BME280;40102;50.906;6.972;2024-02-26T05:39:56;99114.78;;;7.71;98.21
54194;BME280;40102;50.906;6.972;2024-02-26T05:42:21;99115.53;;;7.73;97.39
54194;BME280;40102;50.906;6.972;2024-02-26T05:44:47;99112.34;;;7.68;97.11
54194;BME280;40102;50.906;6.972;2024-02-26T05:47:12;99118.94;;;7.62;97.53
54194;BME280;40102;50.906;6.972;2024-02-26T05:49:38;99112.97;;;7.59;98.19
54194;BME280;40102;50.906;6.972;2024-02-26T05:52:04;99122.66;;;7.60;98.43
54194;BME280;40102;50.906;6.972;2024-02-26T05:54:30;99119.56;;;7.53;98.35
54194;BME280;40102;50.906;6.972;2024-02-26T05:56:55;99127.25;;;7.58;98.96
54194;BME280;40102;50.906;6.972;2024-02-26T05:59:20;99120.00;;;7.60;98.87
54194;BME280;40102;50.906;6.972;2024-02-26T06:01:45;99129.59;;;7.62;98.54
54194;BME280;40102;50.906;6.972;2024-02-26T06:04:11;99126.38;;;7.57;98.77
54194;BME280;40102;50.906;6.972;2024-02-26T06:06:37;99132.25;;;7.62;98.82
54194;BME280;40102;50.906;6.972;2024-02-26T06:09:02;99139.91;;;7.67;98.77
54194;BME280;40102;50.906;6.972;2024-02-26T06:11:30;99138.97;;;7.68;98.29
54194;BME280;40102;50.906;6.972;2024-02-26T06:13:55;99140.75;;;7.67;98.04
54194;BME280;40102;50.906;6.972;2024-02-26T06:16:21;99139.91;;;7.67;97.91
54194;BME280;40102;50.906;6.972;2024-02-26T06:18:46;99148.00;;;7.65;97.80
54194;BME280;40102;50.906;6.972;2024-02-26T06:21:11;99151.50;;;7.66;97.21
54194;BME280;40102;50.906;6.972;2024-02-26T06:23:38;99142.56;;;7.54;97.66
54194;BME280;40102;50.906;6.972;2024-02-26T06:26:04;99157.25;;;7.60;97.56
54194;BME280;40102;50.906;6.972;2024-02-26T06:28:29;99155.56;;;7.59;98.19
54194;BME280;40102;50.906;6.972;2024-02-26T06:30:57;99154.81;;;7.57;98.51
54194;BME280;40102;50.906;6.972;2024-02-26T06:33:22;99161.81;;;7.58;98.40
54194;BME280;40102;50.906;6.972;2024-02-26T06:35:47;99161.69;;;7.46;98.16
54194;BME280;40102;50.906;6.972;2024-02-26T06:38:13;99168.28;;;7.41;99.09
54194;BME280;40102;50.906;6.972;2024-02-26T06:40:39;99170.09;;;7.40;99.24
54194;BME280;40102;50.906;6.972;2024-02-26T06:43:04;99174.56;;;7.40;99.75
54194;BME280;40102;50.906;6.972;2024-02-26T06:45:29;99180.63;;;7.42;100.00
54194;BME280;40102;50.906;6.972;2024-02-26T06:47:55;99180.19;;;7.35;99.71
54194;BME280;40102;50.906;6.972;2024-02-26T06:50:21;99187.13;;;7.38;100.00
54194;BME280;40102;50.906;6.972;2024-02-26T06:52:47;99193.84;;;7.43;100.00
54194;BME280;40102;50.906;6.972;2024-02-26T06:55:12;99195.91;;;7.78;100.00
54194;BME280;40102;50.906;6.972;2024-02-26T06:57:38;99198.50;;;8.30;100.00
54194;BME280;40102;50.906;6.972;2024-02-26T07:00:04;99205.63;;;8.55;100.00
54194;BME280;40102;50.906;6.972;2024-02-26T07:02:30;99199.28;;;8.82;100.00
54194;BME280;40102;50.906;6.972;2024-02-26T07:04:56;99198.47;;;9.05;100.00
54194;BME280;40102;50.906;6.972;2024-02-26T07:07:23;99208.75;;;9.22;98.02
54194;BME280;40102;50.906;6.972;2024-02-26T07:09:48;99211.91;;;9.27;94.51
54194;BME280;40102;50.906;6.972;2024-02-26T07:12:14;99202.09;;;9.28;93.43
54194;BME280;40102;50.906;6.972;2024-02-26T07:14:39;99203.47;;;9.33;93.02
54194;BME280;40102;50.906;6.972;2024-02-26T07:17:04;99195.56;;;9.32;92.20
54194;BME280;40102;50.906;6.972;2024-02-26T07:19:30;99209.38;;;9.26;89.38
54194;BME280;40102;50.906;6.972;2024-02-26T07:21:55;99211.13;;;9.14;90.94
54194;BME280;40102;50.906;6.972;2024-02-26T07:24:21;99213.28;;;9.09;90.68
54194;BME280;40102;50.906;6.972;2024-02-26T07:26:46;99213.88;;;8.89;90.36
54194;BME280;40102;50.906;6.972;2024-02-26T07:29:11;99221.34;;;8.84;92.93
54194;BME280;40102;50.906;6.972;2024-02-26T07:31:37;99213.53;;;8.93;93.86
54194;BME280;40102;50.906;6.972;2024-02-26T07:34:02;99226.19;;;9.02;92.88
54194;BME280;40102;50.906;6.972;2024-02-26T07:36:27;99223.66;;;9.01;91.69
54194;BME280;40102;50.906;6.972;2024-02-26T07:38:53;99226.63;;;9.09;91.51
54194;BME280;40102;50.906;6.972;2024-02-26T07:41:20;99221.50;;;9.06;91.28
54194;BME280;40102;50.906;6.972;2024-02-26T07:43:45;99225.47;;;9.00;90.52
54194;BME280;40102;50.906;6.972;2024-02-26T07:46:13;99229.91;;;8.76;89.70
54194;BME280;40102;50.906;6.972;2024-02-26T07:48:38;99231.13;;;8.47;91.90
54194;BME280;40102;50.906;6.972;2024-02-26T07:51:04;99239.97;;;8.34;95.09
54194;BME280;40102;50.906;6.972;2024-02-26T07:53:30;99231.88;;;8.49;97.19
54194;BME280;40102;50.906;6.972;2024-02-26T07:55:55;99233.13;;;8.68;95.84
54194;BME280;40102;50.906;6.972;2024-02-26T07:58:23;99240.00;;;8.84;94.24
54194;BME280;40102;50.906;6.972;2024-02-26T08:00:49;99242.75;;;8.95;93.19
54194;BME280;40102;50.906;6.972;2024-02-26T08:03:14;99243.69;;;9.06;92.18
54194;BME280;40102;50.906;6.972;2024-02-26T08:05:41;99247.94;;;9.09;91.24
54194;BME280;40102;50.906;6.972;2024-02-26T08:08:07;99251.66;;;9.19;91.04
54194;BME280;40102;50.906;6.972;2024-02-26T08:10:33;99244.53;;;9.07;89.31
54194;BME280;40102;50.906;6.972;2024-02-26T08:12:58;99245.28;;;9.09;90.49
54194;BME280;40102;50.906;6.972;2024-02-26T08:15:33;99257.56;;;8.99;91.22
54194;BME280;40102;50.906;6.972;2024-02-26T08:18:03;99254.19;;;8.84;90.89
54194;BME280;40102;50.906;6.972;2024-02-26T08:20:29;99265.19;;;8.80;92.18
54194;BME280;40102;50.906;6.972;2024-02-26T08:22:54;99264.47;;;8.65;91.97
54194;BME280;40102;50.906;6.972;2024-02-26T08:25:20;99269.16;;;8.61;93.06
54194;BME280;40102;50.906;6.972;2024-02-26T08:27:45;99264.88;;;8.71;93.43
54194;BME280;40102;50.906;6.972;2024-02-26T08:30:13;99278.00;;;8.74;92.52
54194;BME280;40102;50.906;6.972;2024-02-26T08:32:41;99281.09;;;8.68;91.19
54194;BME280;40102;50.906;6.972;2024-02-26T08:35:07;99297.84;;;8.58;92.33
54194;BME280;40102;50.906;6.972;2024-02-26T08:37:33;99290.59;;;8.47;92.15
54194;BME280;40102;50.906;6.972;2024-02-26T08:39:58;99298.91;;;8.55;93.71
54194;BME280;40102;50.906;6.972;2024-02-26T08:42:23;99295.50;;;8.53;92.07
54194;BME280;40102;50.906;6.972;2024-02-26T08:44:49;99299.44;;;8.35;92.75
54194;BME280;40102;50.906;6.972;2024-02-26T08:47:14;99297.56;;;8.10;93.24
54194;BME280;40102;50.906;6.972;2024-02-26T08:49:44;99303.00;;;8.08;96.46
54194;BME280;40102;50.906;6.972;2024-02-26T08:52:10;99303.88;;;8.22;97.75
54194;BME280;40102;50.906;6.972;2024-02-26T08:54:35;99300.41;;;8.34;96.17
54194;BME280;40102;50.906;6.972;2024-02-26T08:57:00;99297.47;;;8.24;94.69
54194;BME280;40102;50.906;6.972;2024-02-26T08:59:25;99315.34;;;8.09;94.37
54194;BME280;40102;50.906;6.972;2024-02-26T09:01:51;99321.41;;;7.99;96.05
54194;BME280;40102;50.906;6.972;2024-02-26T09:04:16;99329.50;;;7.97;96.29
54194;BME280;40102;50.906;6.972;2024-02-26T09:06:41;99338.22;;;7.99;96.97
54194;BME280;40102;50.906;6.972;2024-02-26T09:09:07;99326.44;;;8.16;97.56
54194;BME280;40102;50.906;6.972;2024-02-26T09:11:32;99327.72;;;8.23;95.96
54194;BME280;40102;50.906;6.972;2024-02-26T09:13:57;99328.91;;;8.32;96.09
54194;BME280;40102;50.906;6.972;2024-02-26T09:16:22;99333.22;;;8.34;93.84
54194;BME280;40102;50.906;6.972;2024-02-26T09:18:48;99338.81;;;8.30;93.72
54194;BME280;40102;50.906;6.972;2024-02-26T09:21:13;99341.38;;;8.19;93.25
54194;BME280;40102;50.906;6.972;2024-02-26T09:23:39;99342.09;;;8.08;95.07
54194;BME280;40102;50.906;6.972;2024-02-26T09:26:05;99358.38;;;8.03;95.53
54194;BME280;40102;50.906;6.972;2024-02-26T09:28:31;99354.22;;;7.99;95.12
54194;BME280;40102;50.906;6.972;2024-02-26T09:31:02;99370.03;;;7.88;96.22
54194;BME280;40102;50.906;6.972;2024-02-26T09:33:28;99370.69;;;7.92;98.24
54194;BME280;40102;50.906;6.972;2024-02-26T09:35:53;99370.03;;;7.88;96.26
54194;BME280;40102;50.906;6.972;2024-02-26T09:38:18;99360.00;;;7.79;97.03
54194;BME280;40102;50.906;6.972;2024-02-26T09:40:44;99364.72;;;7.88;97.98
54194;BME280;40102;50.906;6.972;2024-02-26T09:43:14;99372.59;;;7.90;97.83
54194;BME280;40102;50.906;6.972;2024-02-26T09:45:40;99378.69;;;7.92;98.23
54194;BME280;40102;50.906;6.972;2024-02-26T09:48:08;99378.06;;;8.01;96.99
54194;BME280;40102;50.906;6.972;2024-02-26T09:50:33;99376.56;;;7.97;97.18
54194;BME280;40102;50.906;6.972;2024-02-26T09:53:02;99377.97;;;8.02;95.54
54194;BME280;40102;50.906;6.972;2024-02-26T09:55:30;99394.56;;;7.93;95.59
54194;BME280;40102;50.906;6.972;2024-02-26T09:58:00;99393.44;;;7.83;97.13
54194;BME280;40102;50.906;6.972;2024-02-26T10:00:27;99378.28;;;7.71;97.70
54194;BME280;40102;50.906;6.972;2024-02-26T10:02:57;99394.03;;;7.74;97.90
54194;BME280;40102;50.906;6.972;2024-02-26T10:05:25;99399.78;;;7.68;97.61
54194;BME280;40102;50.906;6.972;2024-02-26T10:07:52;99395.03;;;7.59;98.79
54194;BME280;40102;50.906;6.972;2024-02-26T10:10:18;99408.63;;;7.54;98.46
54194;BME280;40102;50.906;6.972;2024-02-26T10:12:44;99400.78;;;7.38;98.71
54194;BME280;40102;50.906;6.972;2024-02-26T10:15:09;99408.28;;;7.46;100.00
54194;BME280;40102;50.906;6.972;2024-02-26T10:17:35;99407.97;;;7.51;100.00
54194;BME280;40102;50.906;6.972;2024-02-26T10:20:15;99414.53;;;7.59;100.00
54194;BME280;40102;50.906;6.972;2024-02-26T10:22:41;99417.53;;;7.67;100.00
54194;BME280;40102;50.906;6.972;2024-02-26T10:25:07;99411.16;;;7.70;100.00
54194;BME280;40102;50.906;6.972;2024-02-26T10:27:34;99416.94;;;7.76;100.00
54194;BME280;40102;50.906;6.972;2024-02-26T10:30:02;99417.91;;;7.75;99.61
54194;BME280;40102;50.906;6.972;2024-02-26T10:32:28;99410.22;;;7.71;100.00
54194;BME280;40102;50.906;6.972;2024-02-26T10:34:57;99416.94;;;7.76;100.00
54194;BME280;40102;50.906;6.972;2024-02-26T10:37:23;99415.53;;;7.71;100.00
54194;BME280;40102;50.906;6.972;2024-02-26T10:39:48;99423.22;;;7.75;100.00
54194;BME280;40102;50.906;6.972;2024-02-26T10:42:14;99422.38;;;7.75;100.00
54194;BME280;40102;50.906;6.972;2024-02-26T10:44:40;99428.56;;;7.75;100.00
54194;BME280;40102;50.906;6.972;2024-02-26T10:47:07;99419.50;;;7.78;100.00
54194;BME280;40102;50.906;6.972;2024-02-26T10:49:35;99423.88;;;7.79;100.00
54194;BME280;40102;50.906;6.972;2024-02-26T10:52:01;99435.09;;;7.84;100.00
54194;BME280;40102;50.906;6.972;2024-02-26T10:54:29;99439.56;;;7.84;100.00
54194;BME280;40102;50.906;6.972;2024-02-26T10:56:56;99435.84;;;7.86;100.00
54194;BME280;40102;50.906;6.972;2024-02-26T10:59:23;99438.16;;;7.78;100.00
54194;BME280;40102;50.906;6.972;2024-02-26T11:01:48;99454.13;;;7.78;100.00
54194;BME280;40102;50.906;6.972;2024-02-26T11:04:16;99455.06;;;7.77;100.00
54194;BME280;40102;50.906;6.972;2024-02-26T11:06:43;99449.19;;;7.72;100.00
54194;BME280;40102;50.906;6.972;2024-02-26T11:09:12;99454.72;;;7.69;100.00
54194;BME280;40102;50.906;6.972;2024-02-26T11:11:41;99457.38;;;7.69;100.00
54194;BME280;40102;50.906;6.972;2024-02-26T11:14:08;99453.38;;;7.62;100.00
54194;BME280;40102;50.906;6.972;2024-02-26T11:16:35;99448.91;;;7.62;100.00
54194;BME280;40102;50.906;6.972;2024-02-26T11:19:02;99463.53;;;7.69;100.00
54194;BME280;40102;50.906;6.972;2024-02-26T11:21:42;99462.28;;;7.75;100.00
54194;BME280;40102;50.906;6.972;2024-02-26T11:24:28;99452.63;;;7.60;100.00
54194;BME280;40102;50.906;6.972;2024-02-26T11:26:57;99472.94;;;7.75;100.00
54194;BME280;40102;50.906;6.972;2024-02-26T11:29:24;99476.56;;;7.74;100.00
54194;BME280;40102;50.906;6.972;2024-02-26T11:31:51;99474.75;;;7.74;100.00
54194;BME280;40102;50.906;6.972;2024-02-26T11:34:17;99477.81;;;7.68;100.00
54194;BME280;40102;50.906;6.972;2024-02-26T11:36:43;99481.50;;;7.66;100.00
54194;BME280;40102;50.906;6.972;2024-02-26T11:39:11;99489.59;;;7.64;100.00
54194;BME280;40102;50.906;6.972;2024-02-26T11:41:38;99485.13;;;7.65;100.00
54194;BME280;40102;50.906;6.972;2024-02-26T11:44:03;99498.34;;;7.66;100.00
54194;BME280;40102;50.906;6.972;2024-02-26T11:46:33;99494.16;;;7.62;100.00
54194;BME280;40102;50.906;6.972;2024-02-26T11:51:58;99495.78;;;7.65;100.00
54194;BME280;40102;50.906;6.972;2024-02-26T11:54:57;99498.25;;;7.68;100.00
54194;BME280;40102;50.906;6.972;2024-02-26T11:57:39;99482.94;;;7.71;100.00
54194;BME280;40102;50.906;6.972;2024-02-26T12:00:15;99494.25;;;7.75;100.00
54194;BME280;40102;50.906;6.972;2024-02-26T12:02:50;99489.78;;;7.75;100.00
54194;BME280;40102;50.906;6.972;2024-02-26T12:05:23;99485.31;;;7.76;100.00
54194;BME280;40102;50.906;6.972;2024-02-26T12:07:55;99475.59;;;7.75;100.00
54194;BME280;40102;50.906;6.972;2024-02-26T12:10:26;99489.28;;;7.83;100.00
54194;BME280;40102;50.906;6.972;2024-02-26T12:13:13;99491.56;;;7.89;100.00
54194;BME280;40102;50.906;6.972;2024-02-26T12:15:42;99489.84;;;7.88;100.00
54194;BME280;40102;50.906;6.972;2024-02-26T12:18:08;99500.41;;;7.90;100.00
54194;BME280;40102;50.906;6.972;2024-02-26T12:20:36;99503.63;;;7.95;100.00
54194;BME280;40102;50.906;6.972;2024-02-26T12:23:02;99496.78;;;7.91;100.00
54194;BME280;40102;50.906;6.972;2024-02-26T12:25:29;99509.69;;;7.97;100.00
54194;BME280;40102;50.906;6.972;2024-02-26T12:27:55;99511.16;;;7.88;100.00
54194;BME280;40102;50.906;6.972;2024-02-26T12:30:21;99521.22;;;7.83;100.00
54194;BME280;40102;50.906;6.972;2024-02-26T12:32:48;99533.19;;;7.90;100.00
54194;BME280;40102;50.906;6.972;2024-02-26T12:35:15;99538.44;;;7.92;100.00
54194;BME280;40102;50.906;6.972;2024-02-26T12:37:41;99538.53;;;7.90;100.00
54194;BME280;40102;50.906;6.972;2024-02-26T12:40:10;99536.81;;;7.89;100.00
54194;BME280;40102;50.906;6.972;2024-02-26T12:42:36;99548.78;;;7.96;100.00
54194;BME280;40102;50.906;6.972;2024-02-26T12:45:06;99548.59;;;7.99;100.00
54194;BME280;40102;50.906;6.972;2024-02-26T12:47:36;99544.88;;;8.02;100.00
54194;BME280;40102;50.906;6.972;2024-02-26T12:50:03;99554.78;;;8.00;100.00
54194;BME280;40102;50.906;6.972;2024-02-26T12:52:30;99562.66;;;8.01;100.00
54194;BME280;40102;50.906;6.972;2024-02-26T12:54:56;99559.06;;;8.02;100.00
54194;BME280;40102;50.906;6.972;2024-02-26T12:57:22;99575.78;;;8.04;100.00
54194;BME280;40102;50.906;6.972;2024-02-26T12:59:47;99578.66;;;8.01;100.00
54194;BME280;40102;50.906;6.972;2024-02-26T13:02:13;99569.59;;;8.04;100.00
54194;BME280;40102;50.906;6.972;2024-02-26T13:04:38;99571.59;;;8.00;100.00
54194;BME280;40102;50.906;6.972;2024-02-26T13:07:04;99583.78;;;8.04;100.00